sensor_id;sensor_type;location;lat;lon;timestamp;P1;durP1;ratioP1;P2;durP2;ratioP2
3901;SDS011;1966;49.908;9.156;2023-09-30T00:00:18;8.53;;;6.27;;
3901;SDS011;1966;49.908;9.156;2023-09-30T00:05:18;9.40;;;6.47;;
3901;SDS011;1966;49.908;9.156;2023-09-30T00:10:19;15.40;;;6.80;;
3901;SDS011;1966;49.908;9.156;2023-09-30T00:15:18;8.20;;;6.90;;
3901;SDS011;1966;49.908;9.156;2023-09-30T00:20:17;13.27;;;7.97;;
3901;SDS011;1966;49.908;9.156;2023-09-30T00:25:16;10.83;;;7.60;;
3901;SDS011;1966;49.908;9.156;2023-09-30T00:30:17;9.33;;;7.40;;
3901;SDS011;1966;49.908;9.156;2023-09-30T00:35:16;12.57;;;8.37;;
3901;SDS011;1966;49.908;9.156;2023-09-30T00:40:16;9.70;;;6.80;;
3901;SDS011;1966;49.908;9.156;2023-09-30T00:45:15;10.80;;;7.17;;
3901;SDS011;1966;49.908;9.156;2023-09-30T00:50:15;14.43;;;6.73;;
3901;SDS011;1966;49.908;9.156;2023-09-30T00:55:15;12.67;;;7.73;;
3901;SDS011;1966;49.908;9.156;2023-09-30T01:00:14;12.27;;;6.43;;
3901;SDS011;1966;49.908;9.156;2023-09-30T01:05:15;11.73;;;7.30;;
3901;SDS011;1966;49.908;9.156;2023-09-30T01:10:15;11.60;;;7.20;;
3901;SDS011;1966;49.908;9.156;2023-09-30T01:15:14;7.93;;;6.90;;
3901;SDS011;1966;49.908;9.156;2023-09-30T01:20:13;13.83;;;6.47;;
3901;SDS011;1966;49.908;9.156;2023-09-30T01:25:15;9.93;;;6.03;;
3901;SDS011;1966;49.908;9.156;2023-09-30T01:30:15;8.50;;;5.30;;
3901;SDS011;1966;49.908;9.156;2023-09-30T01:35:16;9.30;;;5.77;;
3901;SDS011;1966;49.908;9.156;2023-09-30T01:40:16;8.97;;;5.03;;
3901;SDS011;1966;49.908;9.156;2023-09-30T01:45:16;6.87;;;4.47;;
3901;SDS011;1966;49.908;9.156;2023-09-30T01:50:15;9.20;;;4.90;;
3901;SDS011;1966;49.908;9.156;2023-09-30T01:55:16;7.93;;;4.43;;
3901;SDS011;1966;49.908;9.156;2023-09-30T02:00:16;9.27;;;4.93;;
3901;SDS011;1966;49.908;9.156;2023-09-30T02:05:15;13.00;;;4.60;;
3901;SDS011;1966;49.908;9.156;2023-09-30T02:10:15;6.47;;;4.83;;
3901;SDS011;1966;49.908;9.156;2023-09-30T02:15:16;10.60;;;4.77;;
3901;SDS011;1966;49.908;9.156;2023-09-30T02:20:15;8.50;;;4.23;;
3901;SDS011;1966;49.908;9.156;2023-09-30T02:25:20;5.50;;;4.13;;
3901;SDS011;1966;49.908;9.156;2023-09-30T02:30:20;18.63;;;5.27;;
3901;SDS011;1966;49.908;9.156;2023-09-30T02:35:20;6.97;;;4.40;;
3901;SDS011;1966;49.908;9.156;2023-09-30T02:40:19;6.33;;;4.47;;
3901;SDS011;1966;49.908;9.156;2023-09-30T02:45:20;9.97;;;5.07;;
3901;SDS011;1966;49.908;9.156;2023-09-30T02:50:19;13.00;;;5.83;;
3901;SDS011;1966;49.908;9.156;2023-09-30T02:55:19;9.57;;;4.70;;
3901;SDS011;1966;49.908;9.156;2023-09-30T03:00:18;18.57;;;5.10;;
3901;SDS011;1966;49.908;9.156;2023-09-30T03:05:22;7.17;;;4.60;;
3901;SDS011;1966;49.908;9.156;2023-09-30T03:10:22;9.53;;;4.70;;
3901;SDS011;1966;49.908;9.156;2023-09-30T03:15:21;9.43;;;4.93;;
3901;SDS011;1966;49.908;9.156;2023-09-30T03:20:22;12.37;;;4.57;;
3901;SDS011;1966;49.908;9.156;2023-09-30T03:25:23;6.73;;;4.37;;
3901;SDS011;1966;49.908;9.156;2023-09-30T03:30:22;13.47;;;4.47;;
3901;SDS011;1966;49.908;9.156;2023-09-30T03:35:23;8.50;;;4.93;;
3901;SDS011;1966;49.908;9.156;2023-09-30T03:40:23;10.43;;;4.90;;
3901;SDS011;1966;49.908;9.156;2023-09-30T03:45:26;7.37;;;4.60;;
3901;SDS011;1966;49.908;9.156;2023-09-30T03:50:27;9.63;;;5.27;;
3901;SDS011;1966;49.908;9.156;2023-09-30T03:55:28;9.00;;;4.83;;
3901;SDS011;1966;49.908;9.156;2023-09-30T04:00:27;8.03;;;5.57;;
3901;SDS011;1966;49.908;9.156;2023-09-30T04:05:28;6.40;;;4.43;;
3901;SDS011;1966;49.908;9.156;2023-09-30T04:10:30;10.87;;;5.07;;
3901;SDS011;1966;49.908;9.156;2023-09-30T04:15:29;9.73;;;5.70;;
3901;SDS011;1966;49.908;9.156;2023-09-30T04:20:30;11.17;;;5.93;;
3901;SDS011;1966;49.908;9.156;2023-09-30T04:25:29;10.20;;;5.20;;
3901;SDS011;1966;49.908;9.156;2023-09-30T04:30:29;6.47;;;5.77;;
3901;SDS011;1966;49.908;9.156;2023-09-30T04:35:32;9.30;;;5.53;;
3901;SDS011;1966;49.908;9.156;2023-09-30T04:40:33;12.30;;;5.63;;
3901;SDS011;1966;49.908;9.156;2023-09-30T04:45:32;7.80;;;5.73;;
3901;SDS011;1966;49.908;9.156;2023-09-30T04:50:33;9.73;;;5.57;;
3901;SDS011;1966;49.908;9.156;2023-09-30T04:55:32;12.10;;;6.10;;
3901;SDS011;1966;49.908;9.156;2023-09-30T05:00:31;5.90;;;4.93;;
3901;SDS011;1966;49.908;9.156;2023-09-30T05:05:32;7.93;;;5.53;;
3901;SDS011;1966;49.908;9.156;2023-09-30T05:10:32;8.30;;;5.33;;
3901;SDS011;1966;49.908;9.156;2023-09-30T05:15:31;8.73;;;5.40;;
3901;SDS011;1966;49.908;9.156;2023-09-30T05:20:34;6.17;;;4.93;;
3901;SDS011;1966;49.908;9.156;2023-09-30T05:25:36;5.90;;;4.50;;
3901;SDS011;1966;49.908;9.156;2023-09-30T05:30:36;7.87;;;4.60;;
3901;SDS011;1966;49.908;9.156;2023-09-30T05:35:36;4.97;;;4.47;;
3901;SDS011;1966;49.908;9.156;2023-09-30T05:40:37;6.30;;;5.03;;
3901;SDS011;1966;49.908;9.156;2023-09-30T05:45:36;10.43;;;5.37;;
3901;SDS011;1966;49.908;9.156;2023-09-30T05:50:37;6.77;;;4.70;;
3901;SDS011;1966;49.908;9.156;2023-09-30T05:55:36;8.00;;;5.60;;
3901;SDS011;1966;49.908;9.156;2023-09-30T06:00:36;7.87;;;4.50;;
3901;SDS011;1966;49.908;9.156;2023-09-30T06:05:40;9.87;;;5.63;;
3901;SDS011;1966;49.908;9.156;2023-09-30T06:10:39;7.50;;;5.87;;
3901;SDS011;1966;49.908;9.156;2023-09-30T06:15:40;10.97;;;6.90;;
3901;SDS011;1966;49.908;9.156;2023-09-30T06:20:42;9.63;;;6.57;;
3901;SDS011;1966;49.908;9.156;2023-09-30T06:25:42;12.77;;;7.13;;
3901;SDS011;1966;49.908;9.156;2023-09-30T06:30:41;12.90;;;7.10;;
3901;SDS011;1966;49.908;9.156;2023-09-30T06:35:44;13.17;;;7.67;;
3901;SDS011;1966;49.908;9.156;2023-09-30T06:40:48;11.90;;;6.47;;
3901;SDS011;1966;49.908;9.156;2023-09-30T06:45:47;9.20;;;6.23;;
3901;SDS011;1966;49.908;9.156;2023-09-30T06:50:48;9.50;;;6.47;;
3901;SDS011;1966;49.908;9.156;2023-09-30T06:55:48;9.43;;;6.07;;
3901;SDS011;1966;49.908;9.156;2023-09-30T07:00:47;10.23;;;6.43;;
3901;SDS011;1966;49.908;9.156;2023-09-30T07:05:49;13.07;;;7.50;;
3901;SDS011;1966;49.908;9.156;2023-09-30T07:10:48;20.33;;;8.93;;
3901;SDS011;1966;49.908;9.156;2023-09-30T07:15:48;12.43;;;8.03;;
3901;SDS011;1966;49.908;9.156;2023-09-30T07:20:48;14.10;;;8.00;;
3901;SDS011;1966;49.908;9.156;2023-09-30T07:25:47;15.00;;;8.90;;
3901;SDS011;1966;49.908;9.156;2023-09-30T07:30:47;18.17;;;10.17;;
3901;SDS011;1966;49.908;9.156;2023-09-30T07:35:46;17.17;;;10.03;;
3901;SDS011;1966;49.908;9.156;2023-09-30T07:40:47;13.40;;;9.43;;
3901;SDS011;1966;49.908;9.156;2023-09-30T07:45:46;15.60;;;11.20;;
3901;SDS011;1966;49.908;9.156;2023-09-30T07:50:46;13.60;;;10.07;;
3901;SDS011;1966;49.908;9.156;2023-09-30T07:55:47;17.47;;;10.60;;
3901;SDS011;1966;49.908;9.156;2023-09-30T08:00:46;13.03;;;9.03;;
3901;SDS011;1966;49.908;9.156;2023-09-30T08:05:46;14.70;;;10.53;;
3901;SDS011;1966;49.908;9.156;2023-09-30T08:10:46;15.40;;;9.60;;
3901;SDS011;1966;49.908;9.156;2023-09-30T08:15:46;12.83;;;8.77;;
3901;SDS011;1966;49.908;9.156;2023-09-30T08:20:45;18.80;;;12.17;;
3901;SDS011;1966;49.908;9.156;2023-09-30T08:25:44;14.60;;;11.10;;
3901;SDS011;1966;49.908;9.156;2023-09-30T08:30:45;17.20;;;12.17;;
3901;SDS011;1966;49.908;9.156;2023-09-30T08:35:44;13.20;;;10.40;;
3901;SDS011;1966;49.908;9.156;2023-09-30T08:40:44;12.50;;;8.90;;
3901;SDS011;1966;49.908;9.156;2023-09-30T08:45:46;9.37;;;7.80;;
3901;SDS011;1966;49.908;9.156;2023-09-30T08:50:45;10.97;;;7.70;;
3901;SDS011;1966;49.908;9.156;2023-09-30T08:55:46;10.70;;;7.47;;
3901;SDS011;1966;49.908;9.156;2023-09-30T09:00:46;13.03;;;7.80;;
3901;SDS011;1966;49.908;9.156;2023-09-30T09:05:46;8.93;;;7.47;;
3901;SDS011;1966;49.908;9.156;2023-09-30T09:10:53;11.37;;;6.67;;
3901;SDS011;1966;49.908;9.156;2023-09-30T09:21:11;9.57;;;6.37;;
3901;SDS011;1966;49.908;9.156;2023-09-30T09:26:11;8.73;;;6.03;;
3901;SDS011;1966;49.908;9.156;2023-09-30T09:31:21;12.43;;;7.27;;
3901;SDS011;1966;49.908;9.156;2023-09-30T09:36:38;9.27;;;6.00;;
3901;SDS011;1966;49.908;9.156;2023-09-30T09:41:48;9.37;;;6.33;;
3901;SDS011;1966;49.908;9.156;2023-09-30T09:46:48;10.63;;;5.97;;
3901;SDS011;1966;49.908;9.156;2023-09-30T09:51:49;9.03;;;4.70;;
3901;SDS011;1966;49.908;9.156;2023-09-30T09:56:49;7.03;;;5.30;;
3901;SDS011;1966;49.908;9.156;2023-09-30T10:01:48;11.23;;;5.90;;
3901;SDS011;1966;49.908;9.156;2023-09-30T10:06:47;10.60;;;5.30;;
3901;SDS011;1966;49.908;9.156;2023-09-30T10:11:51;8.87;;;6.13;;
3901;SDS011;1966;49.908;9.156;2023-09-30T10:16:55;8.83;;;4.70;;
3901;SDS011;1966;49.908;9.156;2023-09-30T10:43:19;7.03;;;4.80;;
3901;SDS011;1966;49.908;9.156;2023-09-30T10:48:37;7.50;;;4.70;;
3901;SDS011;1966;49.908;9.156;2023-09-30T10:53:40;9.67;;;5.73;;
3901;SDS011;1966;49.908;9.156;2023-09-30T10:58:42;6.63;;;4.50;;
3901;SDS011;1966;49.908;9.156;2023-09-30T11:03:41;9.83;;;4.40;;
3901;SDS011;1966;49.908;9.156;2023-09-30T11:08:44;9.73;;;4.43;;
3901;SDS011;1966;49.908;9.156;2023-09-30T11:13:45;11.63;;;5.07;;
3901;SDS011;1966;49.908;9.156;2023-09-30T11:18:44;6.93;;;4.30;;
3901;SDS011;1966;49.908;9.156;2023-09-30T11:23:43;8.70;;;4.93;;
3901;SDS011;1966;49.908;9.156;2023-09-30T11:28:44;8.90;;;4.40;;
3901;SDS011;1966;49.908;9.156;2023-09-30T11:33:47;7.00;;;4.30;;
3901;SDS011;1966;49.908;9.156;2023-09-30T11:38:47;6.73;;;4.43;;
3901;SDS011;1966;49.908;9.156;2023-09-30T11:44:01;5.50;;;4.47;;
3901;SDS011;1966;49.908;9.156;2023-09-30T11:49:03;6.60;;;4.23;;
3901;SDS011;1966;49.908;9.156;2023-09-30T11:54:03;7.53;;;4.57;;
3901;SDS011;1966;49.908;9.156;2023-09-30T11:59:05;7.43;;;4.70;;
3901;SDS011;1966;49.908;9.156;2023-09-30T12:04:04;8.95;;;4.65;;
3901;SDS011;1966;49.908;9.156;2023-09-30T12:09:04;8.57;;;4.50;;
3901;SDS011;1966;49.908;9.156;2023-09-30T12:14:07;6.27;;;4.50;;
3901;SDS011;1966;49.908;9.156;2023-09-30T12:19:07;6.17;;;4.23;;
3901;SDS011;1966;49.908;9.156;2023-09-30T12:24:06;7.00;;;4.70;;
3901;SDS011;1966;49.908;9.156;2023-09-30T12:29:08;9.13;;;4.90;;
3901;SDS011;1966;49.908;9.156;2023-09-30T12:34:08;6.73;;;4.10;;
3901;SDS011;1966;49.908;9.156;2023-09-30T12:39:07;7.17;;;4.57;;
3901;SDS011;1966;49.908;9.156;2023-09-30T12:44:11;8.07;;;4.57;;
3901;SDS011;1966;49.908;9.156;2023-09-30T12:49:10;8.07;;;4.80;;
3901;SDS011;1966;49.908;9.156;2023-09-30T12:54:09;7.70;;;4.63;;
3901;SDS011;1966;49.908;9.156;2023-09-30T12:59:12;6.20;;;4.17;;
3901;SDS011;1966;49.908;9.156;2023-09-30T13:04:11;7.00;;;4.10;;
3901;SDS011;1966;49.908;9.156;2023-09-30T13:09:10;5.95;;;3.90;;
3901;SDS011;1966;49.908;9.156;2023-09-30T13:14:09;4.30;;;3.80;;
3901;SDS011;1966;49.908;9.156;2023-09-30T13:19:10;6.93;;;4.38;;
3901;SDS011;1966;49.908;9.156;2023-09-30T13:24:10;5.70;;;4.30;;
3901;SDS011;1966;49.908;9.156;2023-09-30T13:29:09;7.68;;;5.00;;
3901;SDS011;1966;49.908;9.156;2023-09-30T13:34:11;6.07;;;4.65;;
3901;SDS011;1966;49.908;9.156;2023-09-30T13:39:11;5.40;;;3.28;;
3901;SDS011;1966;49.908;9.156;2023-09-30T13:44:11;8.30;;;4.63;;
3901;SDS011;1966;49.908;9.156;2023-09-30T13:49:12;4.80;;;3.90;;
3901;SDS011;1966;49.908;9.156;2023-09-30T13:54:11;4.65;;;3.90;;
3901;SDS011;1966;49.908;9.156;2023-09-30T13:59:12;5.22;;;3.88;;
3901;SDS011;1966;49.908;9.156;2023-09-30T14:04:13;9.88;;;3.90;;
3901;SDS011;1966;49.908;9.156;2023-09-30T14:09:12;6.15;;;4.60;;
3901;SDS011;1966;49.908;9.156;2023-09-30T14:14:13;8.35;;;3.70;;
3901;SDS011;1966;49.908;9.156;2023-09-30T14:19:14;6.32;;;3.70;;
3901;SDS011;1966;49.908;9.156;2023-09-30T14:24:13;5.63;;;3.40;;
3901;SDS011;1966;49.908;9.156;2023-09-30T14:29:13;4.47;;;3.70;;
3901;SDS011;1966;49.908;9.156;2023-09-30T14:34:13;5.82;;;3.35;;
3901;SDS011;1966;49.908;9.156;2023-09-30T14:39:13;7.10;;;3.33;;
3901;SDS011;1966;49.908;9.156;2023-09-30T14:44:13;4.05;;;3.15;;
3901;SDS011;1966;49.908;9.156;2023-09-30T14:49:14;3.50;;;3.20;;
3901;SDS011;1966;49.908;9.156;2023-09-30T14:54:13;5.20;;;3.78;;
3901;SDS011;1966;49.908;9.156;2023-09-30T14:59:12;4.63;;;3.70;;
3901;SDS011;1966;49.908;9.156;2023-09-30T15:04:12;4.22;;;3.65;;
3901;SDS011;1966;49.908;9.156;2023-09-30T15:09:13;5.33;;;3.43;;
3901;SDS011;1966;49.908;9.156;2023-09-30T15:14:13;7.07;;;3.90;;
3901;SDS011;1966;49.908;9.156;2023-09-30T15:19:12;6.70;;;3.70;;
3901;SDS011;1966;49.908;9.156;2023-09-30T15:24:11;7.10;;;3.70;;
3901;SDS011;1966;49.908;9.156;2023-09-30T15:29:12;4.60;;;3.80;;
3901;SDS011;1966;49.908;9.156;2023-09-30T15:34:11;4.80;;;3.80;;
3901;SDS011;1966;49.908;9.156;2023-09-30T15:39:11;6.83;;;4.20;;
3901;SDS011;1966;49.908;9.156;2023-09-30T15:44:12;6.40;;;3.83;;
3901;SDS011;1966;49.908;9.156;2023-09-30T15:49:11;5.10;;;3.23;;
3901;SDS011;1966;49.908;9.156;2023-09-30T15:54:10;6.70;;;4.20;;
3901;SDS011;1966;49.908;9.156;2023-09-30T15:59:09;6.17;;;4.47;;
3901;SDS011;1966;49.908;9.156;2023-09-30T16:04:10;7.00;;;3.80;;
3901;SDS011;1966;49.908;9.156;2023-09-30T16:09:10;5.60;;;3.93;;
3901;SDS011;1966;49.908;9.156;2023-09-30T16:14:09;6.40;;;4.57;;
3901;SDS011;1966;49.908;9.156;2023-09-30T16:19:12;10.50;;;6.23;;
3901;SDS011;1966;49.908;9.156;2023-09-30T16:24:11;8.93;;;6.10;;
3901;SDS011;1966;49.908;9.156;2023-09-30T16:29:11;8.10;;;6.30;;
3901;SDS011;1966;49.908;9.156;2023-09-30T16:34:12;12.10;;;7.77;;
3901;SDS011;1966;49.908;9.156;2023-09-30T16:39:11;9.27;;;5.73;;
3901;SDS011;1966;49.908;9.156;2023-09-30T16:44:12;8.50;;;6.13;;
3901;SDS011;1966;49.908;9.156;2023-09-30T16:49:14;10.70;;;6.13;;
3901;SDS011;1966;49.908;9.156;2023-09-30T16:54:13;10.07;;;5.50;;
3901;SDS011;1966;49.908;9.156;2023-09-30T16:59:12;8.17;;;5.17;;
3901;SDS011;1966;49.908;9.156;2023-09-30T17:04:11;7.80;;;5.50;;
3901;SDS011;1966;49.908;9.156;2023-09-30T17:09:12;17.47;;;8.57;;
3901;SDS011;1966;49.908;9.156;2023-09-30T17:14:11;12.97;;;7.70;;
3901;SDS011;1966;49.908;9.156;2023-09-30T17:19:12;12.40;;;6.40;;
3901;SDS011;1966;49.908;9.156;2023-09-30T17:24:13;18.43;;;6.40;;
3901;SDS011;1966;49.908;9.156;2023-09-30T17:29:12;9.73;;;6.20;;
3901;SDS011;1966;49.908;9.156;2023-09-30T17:34:11;12.93;;;5.70;;
3901;SDS011;1966;49.908;9.156;2023-09-30T17:39:12;9.57;;;5.83;;
3901;SDS011;1966;49.908;9.156;2023-09-30T17:44:11;8.10;;;5.67;;
3901;SDS011;1966;49.908;9.156;2023-09-30T17:49:11;8.30;;;5.80;;
3901;SDS011;1966;49.908;9.156;2023-09-30T17:54:10;10.00;;;5.97;;
3901;SDS011;1966;49.908;9.156;2023-09-30T17:59:11;8.63;;;5.93;;
3901;SDS011;1966;49.908;9.156;2023-09-30T18:04:10;8.97;;;6.10;;
3901;SDS011;1966;49.908;9.156;2023-09-30T18:09:09;10.23;;;6.20;;
3901;SDS011;1966;49.908;9.156;2023-09-30T18:14:12;8.10;;;5.90;;
3901;SDS011;1966;49.908;9.156;2023-09-30T18:19:14;7.77;;;6.20;;
3901;SDS011;1966;49.908;9.156;2023-09-30T18:24:13;7.90;;;6.33;;
3901;SDS011;1966;49.908;9.156;2023-09-30T18:29:14;8.47;;;5.70;;
3901;SDS011;1966;49.908;9.156;2023-09-30T18:34:13;7.23;;;6.00;;
3901;SDS011;1966;49.908;9.156;2023-09-30T18:39:13;12.37;;;6.50;;
3901;SDS011;1966;49.908;9.156;2023-09-30T18:44:12;9.70;;;6.27;;
3901;SDS011;1966;49.908;9.156;2023-09-30T18:49:12;9.60;;;6.07;;
3901;SDS011;1966;49.908;9.156;2023-09-30T18:54:12;8.80;;;5.73;;
3901;SDS011;1966;49.908;9.156;2023-09-30T18:59:11;8.43;;;5.70;;
3901;SDS011;1966;49.908;9.156;2023-09-30T19:04:19;8.27;;;5.60;;
3901;SDS011;1966;49.908;9.156;2023-09-30T19:09:18;8.33;;;5.70;;
3901;SDS011;1966;49.908;9.156;2023-09-30T19:14:18;10.23;;;6.37;;
3901;SDS011;1966;49.908;9.156;2023-09-30T19:19:17;8.67;;;5.53;;
3901;SDS011;1966;49.908;9.156;2023-09-30T19:24:17;7.17;;;5.70;;
3901;SDS011;1966;49.908;9.156;2023-09-30T19:29:17;8.90;;;5.80;;
3901;SDS011;1966;49.908;9.156;2023-09-30T19:34:16;8.83;;;6.00;;
3901;SDS011;1966;49.908;9.156;2023-09-30T19:39:15;9.67;;;5.97;;
3901;SDS011;1966;49.908;9.156;2023-09-30T19:44:16;9.07;;;6.20;;
3901;SDS011;1966;49.908;9.156;2023-09-30T19:49:15;9.37;;;6.00;;
3901;SDS011;1966;49.908;9.156;2023-09-30T19:54:14;10.10;;;6.97;;
3901;SDS011;1966;49.908;9.156;2023-09-30T19:59:14;11.73;;;6.80;;
3901;SDS011;1966;49.908;9.156;2023-09-30T20:04:15;10.43;;;6.33;;
3901;SDS011;1966;49.908;9.156;2023-09-30T20:09:14;7.60;;;5.80;;
3901;SDS011;1966;49.908;9.156;2023-09-30T20:14:14;8.80;;;5.50;;
3901;SDS011;1966;49.908;9.156;2023-09-30T20:19:14;12.80;;;5.73;;
3901;SDS011;1966;49.908;9.156;2023-09-30T20:24:13;7.53;;;6.10;;
3901;SDS011;1966;49.908;9.156;2023-09-30T20:29:13;8.77;;;6.47;;
3901;SDS011;1966;49.908;9.156;2023-09-30T20:34:12;9.27;;;7.10;;
3901;SDS011;1966;49.908;9.156;2023-09-30T20:39:13;10.00;;;6.67;;
3901;SDS011;1966;49.908;9.156;2023-09-30T20:44:14;10.70;;;6.50;;
3901;SDS011;1966;49.908;9.156;2023-09-30T20:49:13;10.03;;;6.60;;
3901;SDS011;1966;49.908;9.156;2023-09-30T20:54:14;8.17;;;6.10;;
3901;SDS011;1966;49.908;9.156;2023-09-30T20:59:13;9.87;;;5.93;;
3901;SDS011;1966;49.908;9.156;2023-09-30T21:04:12;10.37;;;5.90;;
3901;SDS011;1966;49.908;9.156;2023-09-30T21:09:12;8.03;;;6.23;;
3901;SDS011;1966;49.908;9.156;2023-09-30T21:14:13;9.27;;;6.83;;
3901;SDS011;1966;49.908;9.156;2023-09-30T21:19:12;11.80;;;7.30;;
3901;SDS011;1966;49.908;9.156;2023-09-30T21:24:12;9.40;;;6.37;;
3901;SDS011;1966;49.908;9.156;2023-09-30T21:29:11;7.77;;;6.23;;
3901;SDS011;1966;49.908;9.156;2023-09-30T21:34:11;8.20;;;6.00;;
3901;SDS011;1966;49.908;9.156;2023-09-30T21:39:11;9.40;;;5.70;;
3901;SDS011;1966;49.908;9.156;2023-09-30T21:44:10;7.07;;;6.10;;
3901;SDS011;1966;49.908;9.156;2023-09-30T21:49:11;7.80;;;6.17;;
3901;SDS011;1966;49.908;9.156;2023-09-30T21:54:10;6.73;;;5.40;;
3901;SDS011;1966;49.908;9.156;2023-09-30T21:59:10;10.20;;;7.10;;
3901;SDS011;1966;49.908;9.156;2023-09-30T22:04:09;9.67;;;6.60;;
3901;SDS011;1966;49.908;9.156;2023-09-30T22:09:10;9.93;;;7.03;;
3901;SDS011;1966;49.908;9.156;2023-09-30T22:14:09;8.70;;;6.00;;
3901;SDS011;1966;49.908;9.156;2023-09-30T22:19:10;6.70;;;5.70;;
3901;SDS011;1966;49.908;9.156;2023-09-30T22:24:10;7.90;;;5.70;;
3901;SDS011;1966;49.908;9.156;2023-09-30T22:29:10;7.67;;;5.40;;
3901;SDS011;1966;49.908;9.156;2023-09-30T22:34:10;6.87;;;5.30;;
3901;SDS011;1966;49.908;9.156;2023-09-30T22:39:10;6.63;;;5.60;;
3901;SDS011;1966;49.908;9.156;2023-09-30T22:44:10;6.93;;;5.23;;
3901;SDS011;1966;49.908;9.156;2023-09-30T22:49:09;16.90;;;5.73;;
3901;SDS011;1966;49.908;9.156;2023-09-30T22:54:10;7.07;;;5.20;;
3901;SDS011;1966;49.908;9.156;2023-09-30T22:59:09;10.10;;;6.50;;
3901;SDS011;1966;49.908;9.156;2023-09-30T23:04:08;11.03;;;5.90;;
3901;SDS011;1966;49.908;9.156;2023-09-30T23:09:11;9.40;;;6.53;;
3901;SDS011;1966;49.908;9.156;2023-09-30T23:14:10;7.70;;;6.10;;
3901;SDS011;1966;49.908;9.156;2023-09-30T23:19:09;7.50;;;5.47;;
3901;SDS011;1966;49.908;9.156;2023-09-30T23:24:10;7.30;;;5.13;;
3901;SDS011;1966;49.908;9.156;2023-09-30T23:29:10;8.77;;;5.83;;
3901;SDS011;1966;49.908;9.156;2023-09-30T23:34:10;8.83;;;5.00;;
3901;SDS011;1966;49.908;9.156;2023-09-30T23:39:12;7.13;;;5.47;;
3901;SDS011;1966;49.908;9.156;2023-09-30T23:44:11;9.47;;;5.43;;
3901;SDS011;1966;49.908;9.156;2023-09-30T23:49:10;10.90;;;5.17;;
3901;SDS011;1966;49.908;9.156;2023-09-30T23:54:10;8.10;;;5.00;;
3901;SDS011;1966;49.908;9.156;2023-09-30T23:59:12;8.60;;;5.40;;
